createdAt,value
2022-11-20T00:01:32.357Z,67.66
2022-11-20T00:06:32.606Z,67.85
2022-11-20T00:11:33.242Z,68.12
2022-11-20T00:16:33.459Z,68.22
2022-11-20T00:21:32.851Z,68.49
2022-11-20T00:26:31.920Z,68.45
2022-11-20T00:31:33.059Z,68.47
2022-11-20T00:36:33.707Z,68.63
2022-11-20T00:41:32.071Z,68.65
2022-11-20T00:46:31.961Z,68.57
2022-11-20T00:51:32.607Z,68.53
2022-11-20T00:56:32.028Z,68.50
2022-11-20T01:01:31.904Z,68.56
2022-11-20T01:06:34.490Z,68.55
2022-11-20T01:11:34.864Z,68.54
2022-11-20T01:16:34.033Z,68.35
2022-11-20T01:21:34.300Z,68.41
2022-11-20T01:26:34.688Z,68.58
2022-11-20T01:31:33.032Z,68.56
2022-11-20T01:36:33.835Z,68.45
2022-11-20T01:41:43.204Z,68.59
2022-11-20T01:46:33.958Z,68.34
2022-11-20T01:51:35.288Z,68.46
2022-11-20T01:56:37.119Z,68.76
2022-11-20T02:01:31.882Z,68.51
2022-11-20T02:06:36.497Z,68.86
2022-11-20T02:11:32.041Z,68.76
2022-11-20T02:16:37.073Z,68.85
2022-11-20T02:21:36.145Z,69.53
2022-11-20T02:26:38.381Z,69.52
2022-11-20T02:31:36.341Z,69.61
2022-11-20T02:36:34.550Z,69.91
2022-11-20T02:41:33.324Z,69.83
2022-11-20T02:46:31.727Z,69.69
2022-11-20T02:51:32.760Z,69.63
2022-11-20T02:56:31.980Z,69.60
2022-11-20T03:01:32.322Z,69.87
2022-11-20T03:06:32.375Z,70.05
2022-11-20T03:11:31.569Z,70.40
2022-11-20T03:16:32.442Z,70.56
2022-11-20T03:21:33.481Z,70.66
2022-11-20T03:26:31.861Z,70.96
2022-11-20T03:31:34.516Z,71.11
2022-11-20T03:36:31.964Z,71.05
2022-11-20T03:41:36.846Z,71.24
2022-11-20T03:46:32.089Z,71.67
2022-11-20T03:51:34.361Z,71.85
2022-11-20T03:56:34.175Z,71.83
2022-11-20T04:01:33.866Z,72.24
2022-11-20T04:06:35.042Z,72.24
2022-11-20T04:11:33.015Z,72.35
2022-11-20T04:16:34.641Z,72.52
2022-11-20T04:21:32.849Z,72.59
2022-11-20T04:26:32.273Z,72.81
2022-11-20T04:31:33.777Z,72.82
2022-11-20T04:36:32.615Z,72.81
2022-11-20T04:41:33.826Z,72.75
2022-11-20T04:46:33.775Z,73.21
2022-11-20T04:51:31.945Z,73.30
2022-11-20T04:56:31.636Z,73.12
2022-11-20T05:01:32.744Z,72.89
2022-11-20T05:06:32.084Z,73.21
2022-11-20T05:11:32.512Z,72.85
2022-11-20T05:16:34.890Z,72.76
2022-11-20T05:21:32.113Z,72.67
2022-11-20T05:26:31.824Z,72.46
2022-11-20T05:31:31.790Z,72.59
2022-11-20T05:36:32.055Z,72.39
2022-11-20T05:41:33.219Z,72.63
2022-11-20T05:46:31.438Z,72.78
2022-11-20T05:51:32.070Z,72.81
2022-11-20T05:56:31.479Z,72.65
2022-11-20T06:01:31.711Z,72.56
2022-11-20T06:06:31.586Z,72.68
2022-11-20T06:11:31.567Z,72.41
2022-11-20T06:16:31.705Z,72.43
2022-11-20T06:21:31.796Z,72.23
2022-11-20T06:26:31.595Z,72.12
2022-11-20T06:31:33.011Z,71.97
2022-11-20T06:36:32.532Z,71.74
2022-11-20T06:41:31.605Z,71.70
2022-11-20T06:46:31.345Z,71.77
2022-11-20T06:51:32.592Z,71.70
2022-11-20T06:56:31.295Z,71.45
2022-11-20T07:01:31.410Z,71.58
2022-11-20T07:06:31.866Z,71.57
2022-11-20T07:11:31.690Z,71.24
2022-11-20T07:16:31.536Z,70.88
2022-11-20T07:21:31.441Z,70.56
2022-11-20T07:26:31.363Z,70.76
2022-11-20T07:31:31.291Z,70.41
2022-11-20T07:36:31.689Z,69.94
2022-11-20T07:41:31.331Z,69.38
2022-11-20T07:46:31.303Z,69.02
2022-11-20T07:51:31.578Z,67.56
2022-11-20T07:56:31.251Z,52.67
2022-11-20T08:01:31.359Z,42.10
2022-11-20T08:06:32.397Z,40.74
2022-11-20T08:11:41.170Z,45.45
2022-11-20T08:16:31.317Z,38.23
2022-11-20T08:21:37.806Z,43.12
2022-11-20T08:26:31.263Z,45.94
2022-11-20T08:31:32.532Z,48.07
2022-11-20T08:36:33.574Z,35.53
2022-11-20T08:41:32.992Z,35.12
2022-11-20T08:46:34.134Z,36.74
2022-11-20T08:51:31.938Z,37.89
2022-11-20T08:56:32.154Z,37.22
2022-11-20T09:01:31.295Z,31.09
2022-11-20T09:06:31.694Z,27.09
2022-11-20T09:11:31.374Z,24.34
2022-11-20T09:16:31.249Z,23.69
2022-11-20T09:21:31.534Z,20.17
2022-11-20T09:26:31.859Z,22.15
2022-11-20T09:31:31.412Z,22.03
2022-11-20T09:36:31.679Z,21.24
2022-11-20T09:41:49.800Z,20.55
2022-11-20T09:46:41.058Z,20.38
2022-11-20T09:51:39.790Z,20.11
2022-11-20T09:56:34.401Z,18.90
2022-11-20T10:01:35.277Z,19.27
2022-11-20T10:06:34.235Z,19.70
2022-11-20T10:11:37.102Z,18.57
2022-11-20T10:16:41.853Z,18.89
2022-11-20T10:21:47.504Z,19.07
2022-11-20T10:26:43.097Z,20.05
2022-11-20T10:31:34.375Z,20.25
2022-11-20T10:36:37.106Z,20.03
2022-11-20T10:41:37.320Z,20.97
2022-11-20T10:46:39.992Z,26.84
2022-11-20T10:51:37.354Z,30.75
2022-11-20T10:56:39.091Z,34.82
2022-11-20T11:01:31.242Z,36.20
2022-11-20T11:06:37.424Z,37.66
2022-11-20T11:11:33.672Z,39.23
2022-11-20T11:16:31.204Z,40.28
2022-11-20T11:21:31.133Z,40.94
2022-11-20T11:26:31.854Z,41.82
2022-11-20T11:31:33.201Z,42.65
2022-11-20T11:36:33.783Z,43.68
2022-11-20T11:41:35.920Z,44.47
2022-11-20T11:46:33.612Z,44.82
2022-11-20T11:51:44.818Z,45.30
2022-11-20T11:56:33.350Z,45.02
2022-11-20T12:01:35.719Z,45.94
2022-11-20T12:06:34.591Z,48.29
2022-11-20T12:11:39.034Z,48.13
2022-11-20T12:16:36.878Z,50.33
2022-11-20T12:21:41.913Z,51.39
2022-11-20T12:26:46.146Z,49.85
2022-11-20T12:31:44.672Z,49.99
2022-11-20T12:36:39.857Z,49.75
2022-11-20T12:41:56.609Z,50.59
2022-11-20T12:46:37.635Z,51.87
2022-11-20T12:51:45.367Z,52.92
2022-11-20T12:56:43.015Z,52.46
2022-11-20T13:01:43.909Z,51.87
2022-11-20T13:06:31.152Z,51.87
2022-11-20T13:11:39.969Z,52.44
2022-11-20T13:16:37.785Z,53.14
2022-11-20T13:21:40.859Z,54.88
2022-11-20T13:26:31.993Z,55.11
2022-11-20T13:31:34.285Z,55.42
2022-11-20T13:36:32.313Z,56.83
2022-11-20T13:41:35.223Z,56.02
2022-11-20T13:46:41.069Z,55.64
2022-11-20T13:51:37.341Z,55.64
2022-11-20T13:56:43.663Z,56.45
2022-11-20T14:01:31.882Z,56.88
2022-11-20T14:06:34.791Z,57.43
2022-11-20T14:11:31.722Z,58.50
2022-11-20T14:16:33.616Z,59.18
2022-11-20T14:21:31.172Z,60.20
2022-11-20T14:26:31.716Z,60.45
2022-11-20T14:31:32.183Z,60.60
2022-11-20T14:36:31.011Z,60.86
2022-11-20T14:41:32.708Z,60.86
2022-11-20T14:46:33.417Z,61.39
2022-11-20T14:51:33.674Z,61.21
2022-11-20T14:56:30.941Z,61.47
2022-11-20T15:01:33.723Z,61.73
2022-11-20T15:06:31.365Z,62.07
2022-11-20T15:11:33.528Z,62.40
2022-11-20T15:16:31.095Z,62.91
2022-11-20T15:21:30.944Z,63.19
2022-11-20T15:26:31.821Z,63.43
2022-11-20T15:31:31.300Z,63.88
2022-11-20T15:36:31.378Z,64.02
2022-11-20T15:41:30.978Z,63.42
2022-11-20T15:46:37.389Z,63.34
2022-11-20T15:51:33.713Z,63.31
2022-11-20T15:56:33.121Z,63.12
2022-11-20T16:01:32.184Z,63.33
2022-11-20T16:06:31.108Z,63.43
2022-11-20T16:11:35.551Z,63.56
2022-11-20T16:16:34.697Z,63.73
2022-11-20T16:21:32.380Z,63.91
2022-11-20T16:26:31.828Z,64.05
2022-11-20T16:31:32.945Z,64.47
2022-11-20T16:36:31.265Z,65.05
2022-11-20T16:41:33.035Z,65.11
2022-11-20T16:46:32.184Z,65.62
2022-11-20T16:51:34.741Z,65.68
2022-11-20T16:56:31.829Z,65.94
2022-11-20T17:01:31.729Z,66.09
2022-11-20T17:06:33.168Z,66.30
2022-11-20T17:11:32.687Z,66.33
2022-11-20T17:16:32.983Z,66.15
2022-11-20T17:21:32.045Z,65.85
2022-11-20T17:26:31.498Z,66.74
2022-11-20T17:31:33.310Z,66.84
2022-11-20T17:36:31.378Z,67.44
2022-11-20T17:41:31.242Z,67.00
2022-11-20T17:46:33.133Z,67.20
2022-11-20T17:51:34.122Z,67.57
2022-11-20T17:56:41.745Z,67.95
2022-11-20T18:01:31.965Z,68.17
2022-11-20T18:06:31.612Z,68.82
2022-11-20T18:11:33.726Z,69.60
2022-11-20T18:16:33.439Z,69.25
2022-11-20T18:21:31.606Z,69.25
2022-11-20T18:26:31.100Z,69.59
2022-11-20T18:31:31.649Z,69.88
2022-11-20T18:36:31.670Z,70.08
2022-11-20T18:41:40.975Z,70.13
2022-11-20T18:46:31.431Z,69.96
2022-11-20T18:51:30.980Z,69.96
2022-11-20T18:56:31.447Z,69.72
2022-11-20T19:01:31.613Z,69.92
2022-11-20T19:06:30.773Z,69.68
2022-11-20T19:11:30.968Z,70.03
2022-11-20T19:16:31.232Z,70.13
2022-11-20T19:21:31.137Z,70.03
2022-11-20T19:26:31.313Z,69.91
2022-11-20T19:31:31.856Z,70.66
2022-11-20T19:36:32.965Z,71.09
2022-11-20T19:41:32.644Z,71.08
2022-11-20T19:46:33.396Z,70.82
2022-11-20T19:51:33.285Z,70.86
2022-11-20T19:56:32.316Z,71.24
2022-11-20T20:01:31.679Z,71.34
2022-11-20T20:06:32.530Z,71.57
2022-11-20T20:11:32.544Z,71.56
2022-11-20T20:16:33.385Z,71.79
2022-11-20T20:21:32.865Z,71.72
2022-11-20T20:26:31.572Z,72.26
2022-11-20T20:31:32.399Z,71.79
2022-11-20T20:36:30.780Z,71.43
2022-11-20T20:41:30.843Z,71.41
2022-11-20T20:46:31.710Z,71.79
2022-11-20T20:51:31.188Z,72.14
2022-11-20T20:56:30.932Z,71.36
2022-11-20T21:01:31.763Z,72.70
2022-11-20T21:06:30.635Z,72.26
2022-11-20T21:11:30.825Z,72.06
2022-11-20T21:16:40.100Z,72.14
2022-11-20T21:21:40.486Z,71.96
2022-11-20T21:26:30.719Z,71.69
2022-11-20T21:31:30.818Z,71.85
2022-11-20T21:36:31.156Z,71.94
2022-11-20T21:41:31.057Z,72.11
2022-11-20T21:46:32.416Z,71.75
2022-11-20T21:51:31.202Z,71.85
2022-11-20T21:56:30.612Z,72.34
2022-11-20T22:01:31.660Z,73.33
2022-11-20T22:06:33.021Z,72.97
2022-11-20T22:11:30.873Z,73.32
2022-11-20T22:16:32.834Z,73.45
2022-11-20T22:21:31.155Z,73.40
2022-11-20T22:26:39.645Z,73.79
2022-11-20T22:31:31.917Z,73.84
2022-11-20T22:36:31.705Z,74.04
2022-11-20T22:41:31.303Z,73.81
2022-11-20T22:46:33.664Z,74.03
2022-11-20T22:51:32.614Z,74.40
2022-11-20T22:56:31.551Z,74.81
2022-11-20T23:01:33.056Z,74.61
2022-11-20T23:06:33.276Z,74.66
2022-11-20T23:11:31.322Z,74.99
2022-11-20T23:16:33.404Z,75.30
2022-11-20T23:21:31.781Z,75.02
2022-11-20T23:26:32.413Z,75.05
2022-11-20T23:31:32.711Z,75.23
2022-11-20T23:36:30.501Z,75.54
2022-11-20T23:41:30.740Z,75.90
2022-11-20T23:46:31.179Z,75.90
2022-11-20T23:51:30.476Z,76.27
2022-11-20T23:56:30.557Z,75.71
